KROW/ROW METAR and TAF weather

Enter ICAO airport designator
Station Type Date Time Source
KROW METAR 2021/10/24 20:51 UTC NOAA

KROW 242051Z 07005KT 10SM CLR 29/M02 A2991 RMK AO2 SLP060 T02891017 56015


Station Type Date Time Source
KROW Decoded METAR 2021/10/24 20:51 UTC NOAA

ROSWELL INDUSTRIAL AIR CENTR, NM, United States (KROW) 33-18N 104-32W 1112M
Oct 24, 2021 - 04:51 PM EDT / 2021.10.24 2051 UTC
Wind: from the ENE (070 degrees) at 6 MPH (5 KT):0
Visibility: 10 mile(s):0
Sky conditions: clear
Temperature: 84.0 F (28.9 C)
Dew Point: 28.9 F (-1.7 C)
Relative Humidity: 13%
Pressure (altimeter): 29.91 in. Hg (1012 hPa)
Pressure tendency: 0.04 inches (1.5 hPa) lower than three hours ago
ob: KROW 242051Z 07005KT 10SM CLR 29/M02 A2991 RMK AO2 SLP060 T02891017 56015
cycle: 21

Station Type Date Time Source
KROW TAF 2021/10/24 18:22 UTC NOAA

TAF KROW 241720Z 2418/2518 VRB06KT P6SM FEW250

Example: see airport list